createdAt,value
2024-02-05T00:00:07.203Z,4.35
2024-02-05T00:02:33.648Z,4.60
2024-02-05T00:05:00.122Z,3.42
2024-02-05T00:07:26.643Z,3.85
2024-02-05T00:09:53.156Z,4.40
2024-02-05T00:12:19.965Z,5.28
2024-02-05T00:14:46.434Z,3.88
2024-02-05T00:17:12.837Z,3.80
2024-02-05T00:19:39.532Z,3.70
2024-02-05T00:22:06.132Z,4.38
2024-02-05T00:24:32.639Z,4.78
2024-02-05T00:26:59.062Z,4.53
2024-02-05T00:29:25.574Z,3.63
2024-02-05T00:31:52.263Z,4.65
2024-02-05T00:34:18.751Z,3.38
2024-02-05T00:36:45.634Z,4.65
2024-02-05T00:39:12.157Z,4.00
2024-02-05T00:41:38.756Z,5.13
2024-02-05T00:44:05.935Z,4.22
2024-02-05T00:46:32.372Z,4.65
2024-02-05T00:49:00.489Z,5.85
2024-02-05T00:51:27.416Z,5.60
2024-02-05T00:53:53.891Z,4.55
2024-02-05T00:56:20.336Z,4.93
2024-02-05T00:58:46.815Z,4.22
2024-02-05T01:01:13.364Z,4.25
2024-02-05T01:03:40.097Z,4.63
2024-02-05T01:06:08.101Z,5.25
2024-02-05T01:08:34.833Z,5.18
2024-02-05T01:11:01.331Z,5.82
2024-02-05T01:13:27.742Z,4.97
2024-02-05T01:15:54.319Z,5.43
2024-02-05T01:18:21.008Z,5.47
2024-02-05T01:20:49.113Z,5.20
2024-02-05T01:23:16.053Z,4.90
2024-02-05T01:25:42.549Z,4.75
2024-02-05T01:28:10.014Z,4.70
2024-02-05T01:30:36.587Z,7.10
2024-02-05T01:33:03.191Z,5.82
2024-02-05T01:35:30.073Z,6.20
2024-02-05T01:37:57.343Z,5.88
2024-02-05T01:40:23.990Z,4.63
2024-02-05T01:42:50.652Z,5.45
2024-02-05T01:45:17.200Z,5.88
2024-02-05T01:47:43.790Z,6.85
2024-02-05T01:50:11.842Z,5.97
2024-02-05T01:52:42.972Z,5.78
2024-02-05T01:55:12.836Z,5.07
2024-02-05T01:57:39.583Z,5.25
2024-02-05T02:00:06.672Z,4.97
2024-02-05T02:02:33.720Z,4.65
2024-02-05T02:05:00.905Z,6.13
2024-02-05T02:07:27.591Z,6.10
2024-02-05T02:09:54.471Z,6.05
2024-02-05T02:12:21.274Z,5.18
2024-02-05T02:14:47.709Z,5.45
2024-02-05T02:17:14.753Z,6.43
2024-02-05T02:19:47.175Z,5.40
2024-02-05T02:22:22.916Z,5.40
2024-02-05T02:24:50.118Z,6.38
2024-02-05T02:27:17.038Z,5.45
2024-02-05T02:29:44.425Z,6.60
2024-02-05T02:32:32.375Z,6.32
2024-02-05T02:35:02.908Z,5.88
2024-02-05T02:37:31.788Z,7.22
2024-02-05T02:40:10.939Z,5.07
2024-02-05T02:42:41.806Z,6.78
2024-02-05T02:45:12.833Z,5.78
2024-02-05T02:47:39.405Z,5.63
2024-02-05T02:50:07.015Z,5.47
2024-02-05T02:52:33.521Z,5.90
2024-02-05T02:55:00.078Z,6.55
2024-02-05T02:57:26.605Z,6.00
2024-02-05T02:59:54.348Z,6.13
2024-02-05T03:02:21.360Z,4.63
2024-02-05T03:04:47.934Z,5.10
2024-02-05T03:07:14.496Z,6.68
2024-02-05T03:09:41.083Z,8.02
2024-02-05T03:12:07.685Z,6.03
2024-02-05T03:14:34.148Z,6.53
2024-02-05T03:17:00.574Z,5.53
2024-02-05T03:19:27.087Z,5.10
2024-02-05T03:21:53.645Z,4.05
2024-02-05T03:24:20.133Z,6.07
2024-02-05T03:26:46.574Z,6.55
2024-02-05T03:29:13.067Z,5.72
2024-02-05T03:31:43.328Z,5.65
2024-02-05T03:34:10.497Z,6.60
2024-02-05T03:36:37.109Z,6.40
2024-02-05T03:39:04.710Z,5.38
2024-02-05T03:41:31.228Z,5.47
2024-02-05T03:43:57.634Z,5.47
2024-02-05T03:46:24.192Z,4.95
2024-02-05T03:48:51.935Z,5.20
2024-02-05T03:51:18.510Z,6.03
2024-02-05T03:53:44.931Z,5.65
2024-02-05T03:56:13.282Z,6.93
2024-02-05T03:58:40.060Z,5.63
2024-02-05T04:01:06.640Z,5.07
2024-02-05T04:03:33.219Z,4.82
2024-02-05T04:05:59.652Z,5.78
2024-02-05T04:08:26.115Z,6.45
2024-02-05T04:10:52.662Z,5.85
2024-02-05T04:13:19.302Z,6.25
2024-02-05T04:15:47.443Z,5.78
2024-02-05T04:18:14.088Z,6.13
2024-02-05T04:20:40.573Z,8.05
2024-02-05T04:23:07.237Z,6.05
2024-02-05T04:25:33.762Z,6.68
2024-02-05T04:28:00.672Z,5.47
2024-02-05T04:30:30.508Z,6.28
2024-02-05T04:32:57.185Z,5.57
2024-02-05T04:35:23.765Z,5.78
2024-02-05T04:37:50.287Z,5.57
2024-02-05T04:40:16.963Z,7.07
2024-02-05T04:42:43.425Z,4.95
2024-02-05T04:45:10.051Z,6.13
2024-02-05T04:47:36.526Z,6.22
2024-02-05T04:50:03.210Z,5.47
2024-02-05T04:52:29.921Z,6.63
2024-02-05T04:54:56.467Z,5.68
2024-02-05T04:57:23.109Z,6.18
2024-02-05T04:59:49.564Z,5.32
2024-02-05T05:02:16.232Z,5.90
2024-02-05T05:04:44.166Z,6.78
2024-02-05T05:07:10.933Z,4.80
2024-02-05T05:09:38.745Z,4.53
2024-02-05T05:12:07.398Z,5.38
2024-02-05T05:14:33.837Z,5.15
2024-02-05T05:17:00.267Z,6.35
2024-02-05T05:19:26.870Z,6.47
2024-02-05T05:21:53.424Z,4.30
2024-02-05T05:24:20.985Z,5.93
2024-02-05T05:26:47.480Z,5.70
2024-02-05T05:29:13.949Z,7.53
2024-02-05T05:31:40.412Z,5.53
2024-02-05T05:34:08.181Z,5.28
2024-02-05T05:36:35.362Z,6.30
2024-02-05T05:39:01.961Z,6.10
2024-02-05T05:41:28.405Z,5.43
2024-02-05T05:43:54.851Z,6.55
2024-02-05T05:46:22.263Z,6.32
2024-02-05T05:48:48.938Z,6.50
2024-02-05T05:51:15.994Z,4.85
2024-02-05T05:53:42.409Z,5.53
2024-02-05T05:56:10.050Z,5.20
2024-02-05T05:58:37.326Z,6.32
2024-02-05T06:01:07.283Z,5.32
2024-02-05T06:03:33.996Z,6.30
2024-02-05T06:06:00.811Z,4.97
2024-02-05T06:08:27.261Z,5.57
2024-02-05T06:10:53.725Z,5.82
2024-02-05T06:13:20.297Z,5.53
2024-02-05T06:15:46.945Z,5.18
2024-02-05T06:18:14.894Z,6.28
2024-02-05T06:20:41.549Z,5.90
2024-02-05T06:23:08.001Z,7.32
2024-02-05T06:25:34.466Z,4.97
2024-02-05T06:28:00.989Z,4.57
2024-02-05T06:30:28.347Z,6.82
2024-02-05T06:32:54.803Z,5.00
2024-02-05T06:35:21.344Z,5.78
2024-02-05T06:37:47.857Z,7.03
2024-02-05T06:40:15.239Z,6.72
2024-02-05T06:42:41.771Z,5.03
2024-02-05T06:45:10.942Z,5.50
2024-02-05T06:47:37.506Z,5.32
2024-02-05T06:50:04.577Z,6.13
2024-02-05T06:52:32.071Z,5.75
2024-02-05T06:54:58.593Z,6.82
2024-02-05T06:57:25.088Z,6.50
2024-02-05T06:59:51.570Z,6.25
2024-02-05T07:02:20.189Z,4.68
2024-02-05T07:04:47.380Z,5.95
2024-02-05T07:07:13.981Z,6.00
2024-02-05T07:09:40.497Z,6.25
2024-02-05T07:12:08.328Z,6.03
2024-02-05T07:14:34.768Z,6.95
2024-02-05T07:17:01.201Z,6.15
2024-02-05T07:19:28.993Z,5.30
2024-02-05T07:21:55.797Z,4.82
2024-02-05T07:24:22.325Z,6.78
2024-02-05T07:26:48.768Z,5.95
2024-02-05T07:29:15.212Z,7.20
2024-02-05T07:31:41.991Z,5.65
2024-02-05T07:34:08.568Z,4.97
2024-02-05T07:36:35.069Z,5.57
2024-02-05T07:39:01.532Z,4.93
2024-02-05T07:41:27.938Z,5.10
2024-02-05T07:43:54.464Z,4.82
2024-02-05T07:46:21.533Z,6.50
2024-02-05T07:48:48.235Z,4.13
2024-02-05T07:51:14.714Z,5.05
2024-02-05T07:53:41.258Z,5.28
2024-02-05T07:56:10.498Z,6.60
2024-02-05T07:58:38.375Z,5.30
2024-02-05T08:01:05.390Z,6.00
2024-02-05T08:03:31.999Z,4.65
2024-02-05T08:05:58.397Z,6.57
2024-02-05T08:08:24.830Z,4.65
2024-02-05T08:10:51.270Z,5.75
2024-02-05T08:13:17.835Z,5.10
2024-02-05T08:15:44.296Z,3.60
2024-02-05T08:18:10.871Z,5.68
2024-02-05T08:20:38.043Z,5.55
2024-02-05T08:23:05.013Z,4.80
2024-02-05T08:25:31.566Z,5.38
2024-02-05T08:27:59.320Z,5.15
2024-02-05T08:30:25.907Z,7.03
2024-02-05T08:32:52.381Z,5.75
2024-02-05T08:35:18.913Z,5.43
2024-02-05T08:37:45.383Z,5.97
2024-02-05T08:40:12.104Z,5.45
2024-02-05T08:42:38.648Z,7.45
2024-02-05T08:45:05.555Z,4.45
2024-02-05T08:47:33.101Z,4.25
2024-02-05T08:49:59.954Z,5.82
2024-02-05T08:52:26.558Z,5.05
2024-02-05T08:54:53.069Z,5.20
2024-02-05T08:57:19.549Z,6.05
2024-02-05T08:59:45.981Z,5.00
2024-02-05T09:02:16.455Z,5.65
2024-02-05T09:04:43.435Z,6.35
2024-02-05T09:07:10.056Z,3.92
2024-02-05T09:09:37.458Z,3.90
2024-02-05T09:12:06.858Z,5.45
2024-02-05T09:14:36.093Z,4.95
2024-02-05T09:17:03.531Z,4.38
2024-02-05T09:19:30.209Z,4.78
2024-02-05T09:21:56.761Z,6.53
2024-02-05T09:24:24.397Z,5.65
2024-02-05T09:26:51.012Z,4.47
2024-02-05T09:29:18.079Z,5.18
2024-02-05T09:31:44.709Z,4.80
2024-02-05T09:34:13.935Z,5.43
2024-02-05T09:36:40.705Z,4.75
2024-02-05T09:39:07.516Z,4.80
2024-02-05T09:41:35.477Z,5.05
2024-02-05T09:44:04.136Z,4.95
2024-02-05T09:46:34.092Z,5.00
2024-02-05T09:49:03.937Z,6.25
2024-02-05T09:51:30.793Z,4.80
2024-02-05T09:54:10.099Z,5.45
2024-02-05T09:56:41.472Z,5.90
2024-02-05T09:59:08.294Z,5.25
2024-02-05T10:01:35.543Z,6.78
2024-02-05T10:04:02.789Z,6.57
2024-02-05T10:06:34.573Z,6.47
2024-02-05T10:09:07.819Z,6.53
2024-02-05T10:11:39.911Z,6.22
2024-02-05T10:16:34.236Z,6.65
2024-02-05T10:19:00.844Z,5.72
2024-02-05T10:21:27.353Z,6.43
2024-02-05T10:23:54.732Z,5.90
2024-02-05T10:26:23.469Z,7.65
2024-02-05T10:28:50.421Z,5.70
2024-02-05T10:31:18.112Z,4.35
2024-02-05T10:33:47.534Z,6.38
2024-02-05T10:36:16.900Z,8.00
2024-02-05T10:38:43.530Z,6.50
2024-02-05T10:41:10.570Z,5.72
2024-02-05T10:43:37.392Z,7.18
2024-02-05T10:46:04.005Z,7.80
2024-02-05T10:48:30.554Z,7.20
2024-02-05T10:50:57.033Z,7.30
2024-02-05T10:53:24.257Z,6.25
2024-02-05T10:55:51.513Z,7.90
2024-02-05T10:58:18.166Z,6.07
2024-02-05T11:00:44.873Z,8.07
2024-02-05T11:03:16.665Z,6.18
2024-02-05T11:05:44.484Z,5.65
2024-02-05T11:08:17.075Z,6.22
2024-02-05T11:10:47.696Z,6.80
2024-02-05T11:13:33.232Z,5.93
2024-02-05T11:16:03.034Z,7.38
2024-02-05T11:18:41.816Z,6.35
2024-02-05T11:21:09.078Z,8.10
2024-02-05T11:23:35.954Z,6.60
2024-02-05T11:26:02.539Z,5.25
2024-02-05T11:28:29.731Z,6.88
2024-02-05T11:31:08.913Z,4.63
2024-02-05T11:33:39.130Z,6.03
2024-02-05T11:36:11.151Z,6.07
2024-02-05T11:38:42.265Z,6.10
2024-02-05T11:41:09.117Z,6.53
2024-02-05T11:43:35.634Z,7.68
2024-02-05T11:46:02.872Z,5.95
2024-02-05T11:48:31.617Z,6.35
2024-02-05T11:51:00.697Z,6.20
2024-02-05T11:53:27.188Z,5.22
2024-02-05T11:55:54.004Z,6.03
2024-02-05T11:58:20.492Z,5.90
2024-02-05T12:00:47.124Z,6.40
2024-02-05T12:03:15.896Z,5.65
2024-02-05T12:05:42.808Z,6.18
2024-02-05T12:08:10.172Z,6.07
2024-02-05T12:10:37.941Z,6.35
2024-02-05T12:13:04.680Z,5.03
2024-02-05T12:15:32.386Z,7.15
2024-02-05T12:18:02.421Z,5.78
2024-02-05T12:20:30.934Z,7.90
2024-02-05T12:22:57.702Z,6.75
2024-02-05T12:25:34.199Z,5.72
2024-02-05T12:28:05.460Z,7.90
2024-02-05T12:30:32.013Z,5.43
2024-02-05T12:32:58.792Z,5.03
2024-02-05T12:35:25.465Z,5.80
2024-02-05T12:37:53.345Z,5.35
2024-02-05T12:40:20.312Z,5.53
2024-02-05T12:42:46.823Z,6.25
2024-02-05T12:45:16.313Z,6.82
2024-02-05T12:47:43.770Z,4.50
2024-02-05T12:50:11.315Z,5.78
2024-02-05T12:52:38.626Z,4.50
2024-02-05T12:55:06.229Z,6.45
2024-02-05T12:57:32.752Z,5.88
2024-02-05T12:59:59.218Z,5.20
2024-02-05T13:02:25.824Z,6.07
2024-02-05T13:04:52.577Z,5.10
2024-02-05T13:07:19.984Z,5.13
2024-02-05T13:09:50.364Z,5.68
2024-02-05T13:12:18.034Z,5.35
2024-02-05T13:14:44.737Z,5.72
2024-02-05T13:17:12.594Z,5.10
2024-02-05T13:19:39.190Z,5.93
2024-02-05T13:22:06.662Z,5.82
2024-02-05T13:24:33.585Z,5.95
2024-02-05T13:27:00.050Z,4.10
2024-02-05T13:29:26.569Z,5.55
2024-02-05T13:31:53.052Z,6.30
2024-02-05T13:34:22.276Z,4.28
2024-02-05T13:36:49.212Z,5.70
2024-02-05T13:39:16.341Z,5.10
2024-02-05T13:41:43.593Z,6.07
2024-02-05T13:44:10.457Z,3.92
2024-02-05T13:46:37.710Z,3.63
2024-02-05T13:49:04.682Z,4.30
2024-02-05T13:51:31.218Z,2.88
2024-02-05T13:53:57.701Z,4.15
2024-02-05T13:56:24.306Z,3.58
2024-02-05T13:58:50.759Z,4.95
2024-02-05T14:01:18.137Z,5.75
2024-02-05T14:03:44.715Z,4.25
2024-02-05T14:06:12.900Z,4.75
2024-02-05T14:08:39.481Z,4.68
2024-02-05T14:11:05.966Z,4.20
2024-02-05T14:13:32.625Z,5.47
2024-02-05T14:15:59.114Z,4.15
2024-02-05T14:18:26.270Z,3.58
2024-02-05T14:20:52.939Z,3.38
2024-02-05T14:23:19.409Z,3.40
2024-02-05T14:25:45.862Z,4.32
2024-02-05T14:28:12.288Z,4.07
2024-02-05T14:30:38.745Z,4.55
2024-02-05T14:33:05.824Z,4.43
2024-02-05T14:35:32.293Z,3.67
2024-02-05T14:37:58.749Z,3.97
2024-02-05T14:40:25.282Z,3.88
2024-02-05T14:42:51.762Z,3.33
2024-02-05T14:45:18.271Z,3.35
2024-02-05T14:47:45.775Z,3.63
2024-02-05T14:50:13.103Z,3.17
2024-02-05T14:52:39.689Z,3.53
2024-02-05T14:55:06.260Z,3.70
2024-02-05T14:57:32.715Z,3.15
2024-02-05T14:59:59.481Z,3.03
2024-02-05T15:02:27.661Z,4.85
2024-02-05T15:04:54.406Z,3.30
2024-02-05T15:07:22.048Z,4.28
2024-02-05T15:09:48.695Z,3.30
2024-02-05T15:12:15.216Z,3.70
2024-02-05T15:14:41.771Z,3.58
2024-02-05T15:17:08.232Z,4.28
2024-02-05T15:19:34.866Z,4.03
2024-02-05T15:22:01.528Z,3.72
2024-02-05T15:24:28.037Z,4.97
2024-02-05T15:26:54.516Z,4.68
2024-02-05T15:29:20.977Z,4.20
2024-02-05T15:31:47.664Z,4.43
2024-02-05T15:34:15.541Z,3.55
2024-02-05T15:36:42.276Z,4.22
2024-02-05T15:39:12.141Z,3.67
2024-02-05T15:41:38.828Z,3.78
2024-02-05T15:44:05.920Z,3.40
2024-02-05T15:46:32.639Z,2.80
2024-02-05T15:48:59.438Z,4.22
2024-02-05T15:51:26.043Z,4.05
2024-02-05T15:53:53.700Z,3.75
2024-02-05T15:56:25.187Z,3.78
2024-02-05T15:58:59.703Z,2.72
2024-02-05T16:01:29.496Z,2.17
2024-02-05T16:03:58.472Z,2.15
2024-02-05T16:06:25.009Z,2.42
2024-02-05T16:08:52.108Z,2.72
2024-02-05T16:11:18.760Z,3.00
2024-02-05T16:13:45.809Z,3.25
2024-02-05T16:16:12.439Z,2.90
2024-02-05T16:18:39.543Z,3.15
2024-02-05T16:21:06.158Z,2.28
2024-02-05T16:23:32.879Z,2.50
2024-02-05T16:25:59.398Z,2.50
2024-02-05T16:28:26.476Z,1.45
2024-02-05T16:30:53.077Z,1.95
2024-02-05T16:33:20.526Z,1.55
2024-02-05T16:35:47.453Z,1.85
2024-02-05T16:38:14.151Z,1.83
2024-02-05T16:40:40.762Z,2.20
2024-02-05T16:43:07.325Z,1.98
2024-02-05T16:45:33.848Z,1.67
2024-02-05T16:48:02.923Z,1.98
2024-02-05T16:50:29.756Z,2.45
2024-02-05T16:52:56.753Z,2.08
2024-02-05T16:55:23.483Z,1.90
2024-02-05T16:57:51.028Z,2.25
2024-02-05T17:00:17.757Z,2.15
2024-02-05T17:02:44.241Z,1.45
2024-02-05T17:05:10.924Z,2.20
2024-02-05T17:07:37.825Z,3.67
2024-02-05T17:10:04.858Z,3.00
2024-02-05T17:12:31.629Z,3.05
2024-02-05T17:15:05.320Z,3.38
2024-02-05T17:17:32.440Z,2.50
2024-02-05T17:19:59.769Z,2.45
2024-02-05T17:22:26.317Z,2.65
2024-02-05T17:24:53.544Z,1.90
2024-02-05T17:27:20.130Z,3.05
2024-02-05T17:29:46.652Z,2.60
2024-02-05T17:32:14.819Z,2.03
2024-02-05T17:34:41.440Z,2.00
2024-02-05T17:37:08.116Z,4.00
2024-02-05T17:39:34.926Z,4.00
2024-02-05T17:42:01.460Z,10.30
2024-02-05T17:44:28.037Z,4.65
2024-02-05T17:46:58.030Z,3.40
2024-02-05T17:49:25.832Z,2.33
2024-02-05T17:51:52.396Z,2.47
2024-02-05T17:54:18.919Z,2.00
2024-02-05T17:56:45.348Z,2.80
2024-02-05T17:59:11.858Z,2.67
2024-02-05T18:01:38.830Z,2.58
2024-02-05T18:04:06.028Z,2.10
2024-02-05T18:06:33.547Z,2.95
2024-02-05T18:09:00.152Z,3.40
2024-02-05T18:11:26.902Z,3.70
2024-02-05T18:13:55.472Z,6.30
2024-02-05T18:16:21.996Z,3.22
2024-02-05T18:18:48.933Z,3.13
2024-02-05T18:21:15.575Z,3.60
2024-02-05T18:23:42.906Z,3.38
2024-02-05T18:26:09.553Z,2.97
2024-02-05T18:28:38.154Z,3.80
2024-02-05T18:31:05.568Z,3.92
2024-02-05T18:33:32.585Z,2.88
2024-02-05T18:35:59.428Z,3.22
2024-02-05T18:38:25.901Z,2.13
2024-02-05T18:40:55.090Z,3.50
2024-02-05T18:43:23.235Z,2.40
2024-02-05T18:45:49.863Z,3.08
2024-02-05T18:48:16.424Z,2.28
2024-02-05T18:50:42.955Z,2.42
2024-02-05T18:53:09.407Z,3.67
2024-02-05T18:55:36.597Z,2.67
2024-02-05T18:58:03.187Z,2.10
2024-02-05T19:00:33.594Z,2.70
2024-02-05T19:03:02.968Z,4.45
2024-02-05T19:05:30.281Z,3.95
2024-02-05T19:07:57.136Z,4.30
2024-02-05T19:10:23.742Z,2.50
2024-02-05T19:12:53.494Z,4.47
2024-02-05T19:15:22.972Z,5.97
2024-02-05T19:17:50.400Z,5.03
2024-02-05T19:20:17.105Z,4.70
2024-02-05T19:22:43.774Z,2.53
2024-02-05T19:25:10.345Z,4.32
2024-02-05T19:27:37.129Z,3.45
2024-02-05T19:30:04.738Z,2.65
2024-02-05T19:32:31.311Z,3.10
2024-02-05T19:35:01.258Z,4.93
2024-02-05T19:37:28.108Z,5.55
2024-02-05T19:39:55.437Z,4.35
2024-02-05T19:42:21.919Z,3.83
2024-02-05T19:44:48.656Z,3.65
2024-02-05T19:47:15.179Z,3.53
2024-02-05T19:49:41.956Z,3.22
2024-02-05T19:52:10.160Z,2.95
2024-02-05T19:54:37.411Z,4.25
2024-02-05T19:57:04.208Z,2.22
2024-02-05T19:59:31.448Z,2.15
2024-02-05T20:01:58.202Z,2.13
2024-02-05T20:04:25.274Z,2.90
2024-02-05T20:06:52.033Z,3.75
2024-02-05T20:09:19.728Z,2.65
2024-02-05T20:11:49.336Z,2.65
2024-02-05T20:14:16.739Z,2.75
2024-02-05T20:16:53.745Z,2.47
2024-02-05T20:19:20.588Z,2.58
2024-02-05T20:21:47.123Z,3.25
2024-02-05T20:24:13.789Z,3.00
2024-02-05T20:26:43.256Z,3.35
2024-02-05T20:29:10.143Z,2.40
2024-02-05T20:31:36.813Z,2.80
2024-02-05T20:34:04.125Z,2.75
2024-02-05T20:36:30.670Z,3.00
2024-02-05T20:39:03.966Z,3.15
2024-02-05T20:41:30.409Z,3.30
2024-02-05T20:43:56.925Z,2.50
2024-02-05T20:46:23.352Z,3.15
2024-02-05T20:48:50.097Z,2.92
2024-02-05T20:51:17.519Z,3.83
2024-02-05T20:53:44.722Z,3.03
2024-02-05T20:56:11.205Z,3.95
2024-02-05T20:58:37.785Z,3.33
2024-02-05T21:01:04.476Z,4.10
2024-02-05T21:03:35.248Z,5.18
2024-02-05T21:06:03.296Z,2.95
2024-02-05T21:08:29.884Z,2.92
2024-02-05T21:10:56.431Z,3.30
2024-02-05T21:13:23.253Z,5.70
2024-02-05T21:15:49.939Z,3.38
2024-02-05T21:18:17.185Z,5.40
2024-02-05T21:20:43.765Z,3.72
2024-02-05T21:23:10.453Z,4.25
2024-02-05T21:25:37.021Z,3.47
2024-02-05T21:28:05.438Z,3.60
2024-02-05T21:30:35.338Z,4.45
2024-02-05T21:33:02.128Z,3.80
2024-02-05T21:35:28.940Z,3.67
2024-02-05T21:37:57.697Z,4.15
2024-02-05T21:40:24.535Z,4.40
2024-02-05T21:42:51.068Z,3.35
2024-02-05T21:45:17.647Z,5.22
2024-02-05T21:47:44.807Z,8.27
2024-02-05T21:50:11.845Z,4.13
2024-02-05T21:52:38.698Z,2.97
2024-02-05T21:55:05.737Z,9.68
2024-02-05T21:57:32.237Z,3.72
2024-02-05T21:59:58.714Z,3.65
2024-02-05T22:02:25.197Z,3.97
2024-02-05T22:04:54.921Z,3.92
2024-02-05T22:07:21.612Z,4.03
2024-02-05T22:09:48.836Z,4.00
2024-02-05T22:12:15.403Z,3.53
2024-02-05T22:14:42.047Z,3.47
2024-02-05T22:17:08.579Z,4.75
2024-02-05T22:19:35.210Z,4.05
2024-02-05T22:22:01.856Z,3.83
2024-02-05T22:24:28.331Z,3.22
2024-02-05T22:26:54.734Z,4.10
2024-02-05T22:29:21.208Z,4.55
2024-02-05T22:31:49.461Z,3.92
2024-02-05T22:34:27.792Z,3.47
2024-02-05T22:36:58.320Z,4.32
2024-02-05T22:39:24.770Z,3.63
2024-02-05T22:41:51.317Z,4.30
2024-02-05T22:44:17.814Z,3.05
2024-02-05T22:46:44.326Z,4.05
2024-02-05T22:49:10.898Z,3.22
2024-02-05T22:51:37.429Z,4.15
2024-02-05T22:54:06.525Z,3.58
2024-02-05T22:56:33.446Z,3.95
2024-02-05T22:59:00.011Z,3.90
2024-02-05T23:01:29.588Z,3.65
2024-02-05T23:03:58.790Z,4.15
2024-02-05T23:06:28.628Z,4.75
2024-02-05T23:08:56.185Z,3.50
2024-02-05T23:11:22.674Z,4.47
2024-02-05T23:13:49.230Z,3.50
2024-02-05T23:16:16.588Z,5.00
2024-02-05T23:18:43.285Z,3.83
2024-02-05T23:21:09.777Z,3.25
2024-02-05T23:23:36.294Z,3.95
2024-02-05T23:26:03.153Z,3.08
2024-02-05T23:28:29.789Z,3.72
2024-02-05T23:30:56.528Z,4.38
2024-02-05T23:33:23.320Z,3.75
2024-02-05T23:35:49.956Z,3.50
2024-02-05T23:38:16.544Z,4.28
2024-02-05T23:40:43.041Z,2.95
2024-02-05T23:43:09.597Z,3.25
2024-02-05T23:45:37.405Z,3.35
2024-02-05T23:48:04.348Z,3.55
2024-02-05T23:50:30.854Z,3.90
2024-02-05T23:52:57.319Z,3.70
2024-02-05T23:55:23.818Z,3.60
2024-02-05T23:57:50.356Z,3.92
